KMHS/MHS METAR and TAF weather

Enter ICAO airport designator
Station Type Date Time Source
KMHS METAR 2019/02/22 21:56 UTC NOAA

KMHS 222156Z AUTO VRB05KT 10SM CLR 04/M12 A3002 RMK AO2 SLP212 T00441122


Station Type Date Time Source
KMHS Decoded METAR 2019/02/22 21:56 UTC NOAA

MOUNT SHASTA, CA, United States (KMHS) 41-19N 122-19W 1078M
Feb 22, 2019 - 04:56 PM EST / 2019.02.22 2156 UTC
Wind: Variable at 6 MPH (5 KT):0
Visibility: 10 mile(s):0
Sky conditions: clear
Temperature: 39.9 F (4.4 C)
Dew Point: 10.0 F (-12.2 C)
Relative Humidity: 28%
Pressure (altimeter): 30.02 in. Hg (1016 hPa)
ob: KMHS 222156Z AUTO VRB05KT 10SM CLR 04/M12 A3002 RMK AO2 SLP212 T00441122
cycle: 22

Station Type Date Time Source
KMHS TAF UTC NOAA

Error!


Example: see airport list